Time;durP1;ratioP1;P1;durP2;ratioP2;P2;SDS_P1;SDS_P2;PMS_P1;PMS_P2;Temp;Humidity;BMP_temperature;BMP_pressure;BME280_temperature;BME280_humidity;BME280_pressure;Samples;Min_cycle;Max_cycle;Signal;HPM_P1;HPM_P2
2022/10/19 00:01:05;;;;;;;37.00;24.80;;;9.90;99.90;;;;;;5134428;28;20203;-71
2022/10/19 00:03:32;;;;;;;34.15;23.25;;;9.90;99.90;;;;;;5116203;28;20266;-79
2022/10/19 00:05:58;;;;;;;36.35;23.73;;;9.90;99.90;;;;;;5134994;28;20222;-79
2022/10/19 00:08:23;;;;;;;35.42;23.67;;;9.90;99.90;;;;;;5134503;28;20171;-71
2022/10/19 00:10:49;;;;;;;37.30;22.83;;;9.80;99.90;;;;;;5134876;28;20544;-79
2022/10/19 00:13:14;;;;;;;33.50;21.23;;;9.80;99.90;;;;;;5134509;28;20197;-72
2022/10/19 00:15:40;;;;;;;31.17;20.70;;;9.80;99.90;;;;;;5134091;28;20706;-71
2022/10/19 00:18:07;;;;;;;33.87;22.57;;;9.70;99.90;;;;;;5115824;28;20175;-76
2022/10/19 00:20:34;;;;;;;33.85;23.90;;;9.70;99.90;;;;;;5116057;28;20447;-80
2022/10/19 00:23:00;;;;;;;35.95;23.00;;;9.70;99.90;;;;;;5116011;28;20652;-71
2022/10/19 00:25:25;;;;;;;31.90;22.20;;;9.60;99.90;;;;;;5134824;28;20280;-72
2022/10/19 00:27:51;;;;;;;35.43;22.50;;;9.60;99.90;;;;;;5134438;28;20168;-74
2022/10/19 00:30:17;;;;;;;35.73;23.80;;;9.60;99.90;;;;;;5134221;28;20202;-74
2022/10/19 00:32:42;;;;;;;35.70;22.77;;;9.60;99.90;;;;;;5134453;28;20235;-77
2022/10/19 00:35:08;;;;;;;37.17;22.43;;;9.50;99.90;;;;;;5134222;28;20203;-79
2022/10/19 00:37:34;;;;;;;35.70;22.50;;;9.50;99.90;;;;;;5115715;28;20202;-71
2022/10/19 00:39:59;;;;;;;33.40;21.23;;;9.50;99.90;;;;;;5115721;28;20758;-71
2022/10/19 00:42:25;;;;;;;34.27;21.70;;;9.50;99.90;;;;;;5134234;28;20167;-71
2022/10/19 00:44:51;;;;;;;30.20;20.97;;;9.50;99.90;;;;;;5134266;28;20202;-71
2022/10/19 00:47:19;;;;;;;32.53;21.30;;;9.50;99.90;;;;;;5115761;28;20250;-79
2022/10/19 00:49:45;;;;;;;34.67;21.17;;;9.50;99.90;;;;;;5115841;28;20598;-71
2022/10/19 00:52:18;;;;;;;27.25;21.10;;;9.50;99.90;;;;;;5134165;28;20221;-79
2022/10/19 00:54:45;;;;;;;31.30;20.85;;;9.50;99.90;;;;;;5115712;28;20214;-71
2022/10/19 00:57:12;;;;;;;34.42;20.80;;;9.50;99.90;;;;;;5115524;28;20203;-79
2022/10/19 00:59:41;;;;;;;30.98;19.75;;;9.40;99.90;;;;;;5118243;27;20558;-72
2022/10/19 01:02:06;;;;;;;28.23;16.92;;;9.40;99.90;;;;;;5137808;27;20213;-71
2022/10/19 01:04:36;;;;;;;23.43;16.80;;;9.40;99.90;;;;;;5137809;27;20710;-78
2022/10/19 01:07:06;;;;;;;25.48;18.90;;;9.40;99.90;;;;;;5119184;27;20175;-79
2022/10/19 01:09:33;;;;;;;26.65;18.60;;;9.40;99.90;;;;;;5119336;27;20207;-72
2022/10/19 01:12:27;;;;;;;29.88;19.67;;;9.40;99.90;;;;;;5137668;27;20545;-78
2022/10/19 01:15:07;;;;;;;33.05;19.15;;;9.40;99.90;;;;;;5137640;27;20202;-80
2022/10/19 01:18:04;;;;;;;33.92;19.38;;;9.40;99.90;;;;;;5137473;27;20208;-71
2022/10/19 01:21:00;;;;;;;32.58;20.95;;;9.40;99.90;;;;;;5137770;27;20247;-72
2022/10/19 01:23:44;;;;;;;25.15;17.17;;;9.40;99.90;;;;;;5137363;27;20198;-79
2022/10/19 01:26:47;;;;;;;29.88;18.08;;;9.40;99.90;;;;;;5138142;27;20210;-79
2022/10/19 01:30:11;;;;;;;23.63;17.30;;;9.40;99.90;;;;;;5118796;27;21301;-72
2022/10/19 01:32:44;;;;;;;28.17;16.83;;;9.30;99.90;;;;;;5098163;27;20641;-79
2022/10/19 01:35:41;;;;;;;23.55;16.15;;;9.30;99.90;;;;;;5118535;27;20251;-79
2022/10/19 01:38:37;;;;;;;19.98;14.90;;;9.30;99.90;;;;;;5118552;27;20234;-71
2022/10/19 01:41:22;;;;;;;28.35;16.98;;;9.20;99.90;;;;;;5071613;27;20301;-79
2022/10/19 01:44:07;;;;;;;25.30;15.20;;;9.20;99.90;;;;;;5118600;27;20200;-79
2022/10/19 01:46:40;;;;;;;24.33;16.15;;;9.20;99.90;;;;;;5136337;27;20191;-71
2022/10/19 01:49:16;;;;;;;23.35;15.90;;;9.10;99.90;;;;;;5136893;27;20210;-71
2022/10/19 01:51:53;;;;;;;26.13;15.75;;;9.10;99.90;;;;;;5118517;27;20635;-79
2022/10/19 01:54:21;;;;;;;22.63;15.02;;;9.10;99.90;;;;;;5137053;27;20253;-72
2022/10/19 01:56:48;;;;;;;24.48;16.17;;;9.10;99.90;;;;;;5136575;27;20254;-79
2022/10/19 01:59:17;;;;;;;23.65;15.73;;;9.00;99.90;;;;;;5118115;27;20194;-72
2022/10/19 02:01:45;;;;;;;26.95;16.90;;;9.00;99.90;;;;;;5136763;27;20173;-79
2022/10/19 02:04:14;;;;;;;24.90;16.08;;;9.00;99.90;;;;;;5136574;27;20254;-80
2022/10/19 02:06:40;;;;;;;26.10;17.60;;;9.00;99.90;;;;;;5136582;27;20176;-79
2022/10/19 02:09:06;;;;;;;21.50;15.55;;;9.00;99.90;;;;;;5118087;27;20539;-72
2022/10/19 02:11:34;;;;;;;26.48;16.00;;;9.00;99.90;;;;;;5135794;27;20624;-73
2022/10/19 02:14:05;;;;;;;20.67;14.20;;;9.00;99.90;;;;;;5118016;27;20596;-72
2022/10/19 02:16:39;;;;;;;25.88;16.10;;;9.00;99.90;;;;;;5117663;27;20713;-79
2022/10/19 02:19:07;;;;;;;23.95;17.17;;;9.00;99.90;;;;;;5136218;27;20162;-79
2022/10/19 02:21:33;;;;;;;19.42;14.70;;;9.00;99.90;;;;;;5136293;27;20175;-79
2022/10/19 02:23:59;;;;;;;21.52;15.15;;;9.00;99.90;;;;;;5117488;27;20231;-79
2022/10/19 02:26:26;;;;;;;27.48;14.57;;;8.90;99.90;;;;;;5136363;27;20686;-71
2022/10/19 02:28:54;;;;;;;19.27;14.75;;;9.00;99.90;;;;;;5117653;27;20175;-79
2022/10/19 02:31:20;;;;;;;22.23;15.20;;;9.00;99.90;;;;;;5135946;27;20676;-71
2022/10/19 02:33:46;;;;;;;20.10;13.85;;;9.00;99.90;;;;;;5136048;27;20548;-71
2022/10/19 02:36:12;;;;;;;20.60;15.27;;;9.00;99.90;;;;;;5117452;27;20215;-76
2022/10/19 02:38:39;;;;;;;21.17;14.43;;;8.90;99.90;;;;;;5117308;27;20890;-73
2022/10/19 02:41:17;;;;;;;21.45;13.73;;;8.90;99.90;;;;;;5136353;27;20191;-72
2022/10/19 02:43:47;;;;;;;22.92;14.20;;;8.90;99.90;;;;;;5117511;27;20635;-79
2022/10/19 02:46:24;;;;;;;24.52;15.25;;;8.90;99.90;;;;;;5136116;27;20199;-80
2022/10/19 02:48:50;;;;;;;23.00;14.60;;;8.90;99.90;;;;;;5117466;27;20171;-80
2022/10/19 02:51:39;;;;;;;20.48;12.82;;;8.80;99.90;;;;;;5117491;27;20203;-72
2022/10/19 02:54:06;;;;;;;20.98;14.13;;;8.80;99.90;;;;;;5117286;27;20179;-80
2022/10/19 02:56:33;;;;;;;22.00;14.88;;;8.80;99.90;;;;;;5117093;27;20691;-71
2022/10/19 02:59:00;;;;;;;23.70;15.13;;;8.80;99.90;;;;;;5135392;27;20198;-72
2022/10/19 03:01:25;;;;;;;19.58;14.13;;;8.80;99.90;;;;;;5117010;27;20198;-71
2022/10/19 03:03:51;;;;;;;21.43;14.27;;;8.80;99.90;;;;;;5135439;27;20171;-72
2022/10/19 03:06:17;;;;;;;20.07;14.57;;;8.90;99.90;;;;;;5135862;27;20450;-77
2022/10/19 03:08:43;;;;;;;22.03;14.73;;;8.90;99.90;;;;;;5135352;27;20239;-71
2022/10/19 03:11:09;;;;;;;20.87;14.93;;;8.80;99.90;;;;;;5135697;27;20226;-71
2022/10/19 03:13:34;;;;;;;28.47;15.17;;;8.80;99.90;;;;;;5135317;27;20385;-75
2022/10/19 03:16:11;;;;;;;19.20;14.00;;;8.70;99.90;;;;;;5135040;27;20195;-72
2022/10/19 03:18:36;;;;;;;19.15;13.90;;;8.70;99.90;;;;;;5116882;27;20163;-80
2022/10/19 03:21:08;;;;;;;26.10;15.27;;;8.70;99.90;;;;;;5135293;27;20255;-80
2022/10/19 03:23:34;;;;;;;30.98;15.05;;;8.60;99.90;;;;;;5115856;27;20588;-79
2022/10/19 03:26:00;;;;;;;27.63;16.00;;;8.60;99.90;;;;;;5116958;27;20207;-79
2022/10/19 03:28:25;;;;;;;25.33;16.20;;;8.60;99.90;;;;;;5135125;27;20397;-76
2022/10/19 03:30:51;;;;;;;20.30;14.73;;;8.60;99.90;;;;;;5116636;27;20462;-71
2022/10/19 03:33:16;;;;;;;25.93;14.80;;;8.60;99.90;;;;;;5116630;27;20182;-71
2022/10/19 03:35:42;;;;;;;25.50;17.23;;;8.60;99.90;;;;;;5134837;27;20207;-74
2022/10/19 03:38:08;;;;;;;22.90;14.80;;;8.70;99.90;;;;;;5133916;27;20181;-71
2022/10/19 03:40:33;;;;;;;23.50;16.13;;;8.70;99.90;;;;;;5134512;27;20324;-79
2022/10/19 03:42:59;;;;;;;24.97;15.03;;;8.70;99.90;;;;;;5134861;27;20174;-71
2022/10/19 03:45:24;;;;;;;20.63;15.00;;;8.70;99.90;;;;;;5116431;28;20738;-71
2022/10/19 03:47:50;;;;;;;20.47;14.67;;;8.80;99.90;;;;;;5134908;27;20203;-80
2022/10/19 03:50:16;;;;;;;24.38;16.48;;;8.90;99.90;;;;;;5116141;27;20225;-71
2022/10/19 03:52:43;;;;;;;21.05;14.55;;;8.90;99.90;;;;;;5134664;27;20635;-78
2022/10/19 03:55:09;;;;;;;20.50;15.10;;;9.00;99.90;;;;;;5134791;27;20199;-79
2022/10/19 03:57:36;;;;;;;24.17;15.20;;;9.10;99.90;;;;;;5116061;28;20202;-71
2022/10/19 04:00:03;;;;;;;23.35;15.70;;;9.10;99.90;;;;;;5134585;28;20225;-72
2022/10/19 04:02:28;;;;;;;20.58;15.35;;;9.20;99.90;;;;;;5116153;28;20167;-70
2022/10/19 04:04:54;;;;;;;153.50;64.80;;;9.20;99.90;;;;;;5134423;28;20207;-70
2022/10/19 04:07:20;;;;;;;26.53;16.90;;;9.20;99.90;;;;;;5134537;28;20211;-71
2022/10/19 04:09:45;;;;;;;28.33;15.80;;;9.30;99.90;;;;;;5116216;28;20457;-78
2022/10/19 04:12:11;;;;;;;20.97;15.47;;;9.30;99.90;;;;;;5134654;28;20266;-74
2022/10/19 04:14:37;;;;;;;20.17;13.83;;;9.30;99.90;;;;;;5134650;28;20263;-77
2022/10/19 04:17:03;;;;;;;20.40;14.90;;;9.40;99.90;;;;;;5134231;28;20272;-77
2022/10/19 04:19:30;;;;;;;26.30;17.55;;;9.40;99.90;;;;;;5134232;28;20202;-71
2022/10/19 04:21:56;;;;;;;22.05;14.15;;;9.50;99.90;;;;;;5134352;28;20176;-78
2022/10/19 04:24:22;;;;;;;18.83;13.45;;;9.50;99.90;;;;;;5112347;28;20231;-72
2022/10/19 04:26:52;;;;;;;22.77;15.57;;;9.60;99.90;;;;;;5113397;28;20167;-71
2022/10/19 04:29:20;;;;;;;23.90;14.18;;;9.60;99.90;;;;;;5092051;28;20437;-71
2022/10/19 04:31:48;;;;;;;23.85;15.30;;;9.60;99.90;;;;;;5093315;28;20165;-76
2022/10/19 04:34:14;;;;;;;22.48;14.80;;;9.60;99.90;;;;;;5111529;28;20193;-77
2022/10/19 04:36:40;;;;;;;16.80;12.10;;;9.60;99.90;;;;;;5098763;28;20204;-76
2022/10/19 04:39:06;;;;;;;26.73;15.20;;;9.60;99.90;;;;;;5114126;28;20420;-71
2022/10/19 04:41:32;;;;;;;23.40;14.05;;;9.70;99.90;;;;;;5116575;27;20208;-70
2022/10/19 04:44:00;;;;;;;27.40;16.83;;;9.60;99.90;;;;;;5114441;28;20176;-70
2022/10/19 04:46:26;;;;;;;21.75;14.20;;;9.70;99.90;;;;;;5116502;28;20434;-75
2022/10/19 04:48:53;;;;;;;25.30;16.38;;;9.70;99.90;;;;;;5114921;28;20182;-75
2022/10/19 04:51:19;;;;;;;24.45;18.98;;;9.70;99.90;;;;;;5115484;28;20676;-75
2022/10/19 04:53:46;;;;;;;23.25;14.80;;;9.70;99.90;;;;;;5115964;28;20176;-69
2022/10/19 04:56:15;;;;;;;23.75;17.02;;;9.70;99.90;;;;;;5114066;28;20219;-69
2022/10/19 04:58:40;;;;;;;22.55;15.40;;;9.80;99.90;;;;;;5114194;28;20176;-71
2022/10/19 05:01:11;;;;;;;22.93;15.27;;;9.80;99.90;;;;;;5115291;28;20230;-70
2022/10/19 05:03:38;;;;;;;22.90;14.85;;;9.90;99.90;;;;;;5113252;28;20180;-74
2022/10/19 05:06:04;;;;;;;24.05;15.98;;;9.90;99.90;;;;;;5115517;28;20317;-74
2022/10/19 05:08:30;;;;;;;25.73;16.70;;;9.90;99.90;;;;;;5114308;28;20255;-69
2022/10/19 05:11:10;;;;;;;22.63;16.20;;;9.90;99.90;;;;;;5115372;28;20444;-69
2022/10/19 05:13:35;;;;;;;25.38;15.55;;;9.90;99.90;;;;;;5116658;28;20639;-73
2022/10/19 05:16:03;;;;;;;28.17;17.10;;;9.90;99.90;;;;;;5115739;28;20208;-74
2022/10/19 05:18:29;;;;;;;22.08;16.13;;;9.90;99.90;;;;;;5115718;28;20160;-74
2022/10/19 05:21:05;;;;;;;26.23;17.07;;;9.90;99.90;;;;;;5116442;28;20208;-69
2022/10/19 05:23:31;;;;;;;29.83;17.08;;;9.80;99.90;;;;;;5116163;27;20170;-74
2022/10/19 05:26:11;;;;;;;24.25;16.35;;;9.80;99.90;;;;;;5112793;27;20191;-69
2022/10/19 05:28:36;;;;;;;26.52;16.33;;;9.80;99.90;;;;;;5133753;27;20765;-74
2022/10/19 05:31:32;;;;;;;21.43;16.53;;;9.70;99.90;;;;;;5151036;27;20309;-70
2022/10/19 05:33:58;;;;;;;24.58;17.17;;;9.60;99.90;;;;;;5112928;27;20447;-74
2022/10/19 05:36:27;;;;;;;23.88;16.38;;;9.50;99.90;;;;;;5117568;27;20611;-69
2022/10/19 05:38:55;;;;;;;30.98;16.65;;;9.50;99.90;;;;;;5116657;27;20175;-74
2022/10/19 05:41:22;;;;;;;22.70;16.48;;;9.50;99.90;;;;;;5135973;27;20213;-75
2022/10/19 05:43:52;;;;;;;24.25;16.13;;;9.40;99.90;;;;;;5114978;27;20203;-69
2022/10/19 05:46:18;;;;;;;25.00;16.35;;;9.40;99.90;;;;;;5132305;27;20210;-69
2022/10/19 05:48:45;;;;;;;22.97;16.57;;;9.40;99.90;;;;;;5113417;27;20535;-69
2022/10/19 05:51:13;;;;;;;24.52;16.77;;;9.40;99.90;;;;;;5123073;27;20215;-73
2022/10/19 05:53:39;;;;;;;32.55;19.10;;;9.40;99.90;;;;;;5128797;27;20183;-74
2022/10/19 05:56:07;;;;;;;26.33;16.90;;;9.40;99.90;;;;;;5130748;27;20264;-74
2022/10/19 05:58:33;;;;;;;22.88;16.13;;;9.50;99.90;;;;;;5112505;27;20396;-69
2022/10/19 06:01:00;;;;;;;25.25;16.38;;;9.50;99.90;;;;;;5114410;27;20248;-75
2022/10/19 06:03:26;;;;;;;26.42;16.70;;;9.50;99.90;;;;;;5131325;27;20183;-69
2022/10/19 06:05:53;;;;;;;20.75;16.70;;;9.50;99.90;;;;;;5131836;27;20209;-69
2022/10/19 06:08:20;;;;;;;26.48;16.83;;;9.50;99.90;;;;;;5128742;27;20474;-74
2022/10/19 06:10:47;;;;;;;29.92;20.23;;;9.50;99.90;;;;;;5108913;27;20654;-74
2022/10/19 06:13:14;;;;;;;28.08;20.30;;;9.60;99.90;;;;;;5128696;27;20588;-76
2022/10/19 06:15:40;;;;;;;31.10;17.23;;;9.60;99.90;;;;;;5108674;27;20229;-69
2022/10/19 06:18:07;;;;;;;22.80;17.50;;;9.70;99.90;;;;;;5136778;27;20168;-69
2022/10/19 06:20:34;;;;;;;19.45;16.02;;;9.80;99.90;;;;;;5130974;27;20225;-70
2022/10/19 06:23:00;;;;;;;26.70;16.52;;;10.00;99.90;;;;;;5132303;27;20170;-73
2022/10/19 06:25:25;;;;;;;22.63;14.60;;;10.10;99.90;;;;;;5111245;28;20243;-73
2022/10/19 06:27:51;;;;;;;19.27;14.63;;;10.20;99.90;;;;;;5111468;28;20615;-73
2022/10/19 06:30:17;;;;;;;21.42;14.52;;;10.40;99.90;;;;;;5113375;28;20544;-73
2022/10/19 06:32:43;;;;;;;31.20;19.70;;;10.50;99.90;;;;;;5111375;28;20184;-73
2022/10/19 06:35:09;;;;;;;26.47;16.90;;;10.70;99.90;;;;;;5112545;28;21015;-72
2022/10/19 06:37:34;;;;;;;24.73;17.70;;;10.90;99.90;;;;;;5114474;28;20199;-72
2022/10/19 06:40:00;;;;;;;27.20;18.70;;;11.00;99.90;;;;;;5103935;28;20219;-74
2022/10/19 06:42:26;;;;;;;24.77;16.50;;;11.20;99.90;;;;;;5083107;28;20184;-73
2022/10/19 06:44:51;;;;;;;20.53;15.20;;;11.40;99.90;;;;;;5109880;28;20200;-72
2022/10/19 06:47:17;;;;;;;26.00;17.60;;;11.60;99.90;;;;;;5112775;28;20176;-72
2022/10/19 06:49:43;;;;;;;27.60;18.70;;;11.70;99.90;;;;;;5111821;28;20207;-70
2022/10/19 06:52:08;;;;;;;33.17;20.38;;;11.80;99.90;;;;;;5080656;27;20936;-72
2022/10/19 06:54:34;;;;;;;35.53;22.50;;;12.00;99.90;;;;;;5088198;28;20299;-74
2022/10/19 06:56:59;;;;;;;29.80;20.03;;;12.10;99.90;;;;;;5088247;28;20212;-75
2022/10/19 06:59:25;;;;;;;24.30;18.43;;;12.30;99.90;;;;;;5082299;28;20179;-74
2022/10/19 07:01:50;;;;;;;23.80;18.97;;;12.50;99.90;;;;;;5099018;28;20637;-72
2022/10/19 07:04:16;;;;;;;25.97;18.83;;;12.60;99.90;;;;;;5106537;28;20657;-71
2022/10/19 07:06:42;;;;;;;29.93;18.27;;;12.70;99.90;;;;;;5100598;28;20754;-72
2022/10/19 07:09:07;;;;;;;24.90;18.27;;;12.90;99.90;;;;;;5102705;28;20179;-74
2022/10/19 07:11:33;;;;;;;28.53;19.63;;;13.10;99.90;;;;;;5099771;28;20232;-74
2022/10/19 07:13:59;;;;;;;27.50;18.70;;;13.20;99.90;;;;;;5113117;28;20186;-77
2022/10/19 07:16:24;;;;;;;26.70;18.37;;;13.30;99.90;;;;;;5111288;28;20544;-74
2022/10/19 07:18:52;;;;;;;27.73;19.70;;;13.50;99.90;;;;;;5112756;28;20411;-74
2022/10/19 07:21:19;;;;;;;28.83;18.80;;;13.70;99.90;;;;;;5092156;28;20757;-73
2022/10/19 07:23:46;;;;;;;23.80;18.30;;;13.80;99.90;;;;;;5095830;28;20443;-76
2022/10/19 07:26:15;;;;;;;26.67;19.97;;;14.00;99.90;;;;;;5094821;28;20444;-74
2022/10/19 07:28:43;;;;;;;24.67;20.07;;;14.20;99.90;;;;;;5122872;27;20509;-74
2022/10/19 07:31:12;;;;;;;26.30;19.47;;;14.40;99.90;;;;;;5115913;27;20482;-75
2022/10/19 07:33:38;;;;;;;27.53;18.23;;;14.70;99.90;;;;;;5128584;27;20494;-71
2022/10/19 07:36:07;;;;;;;31.33;18.83;;;15.00;99.90;;;;;;5133009;27;21084;-72
2022/10/19 07:38:34;;;;;;;25.60;20.80;;;15.30;99.90;;;;;;5114612;27;20939;-71
2022/10/19 07:41:21;;;;;;;26.60;19.37;;;15.50;99.90;;;;;;5132797;27;20966;-72
2022/10/19 07:43:48;;;;;;;24.67;18.33;;;15.70;99.90;;;;;;5124738;27;20452;-72
2022/10/19 07:46:17;;;;;;;25.97;18.73;;;15.90;99.90;;;;;;5114777;27;20446;-71
2022/10/19 07:48:43;;;;;;;21.67;18.07;;;15.90;99.90;;;;;;5132564;27;20415;-74
2022/10/19 07:51:10;;;;;;;25.97;18.17;;;16.10;99.90;;;;;;5133461;27;20549;-74
2022/10/19 07:53:37;;;;;;;21.07;16.57;;;16.60;99.90;;;;;;5133461;27;20395;-73
2022/10/19 07:56:05;;;;;;;21.80;17.37;;;17.40;99.90;;;;;;5109277;28;20544;-72
2022/10/19 07:58:31;;;;;;;22.40;17.50;;;18.20;99.90;;;;;;5109666;28;20411;-73
2022/10/19 08:01:02;;;;;;;22.23;17.83;;;19.10;99.90;;;;;;5132878;28;20473;-75
2022/10/19 08:03:28;;;;;;;20.67;17.17;;;19.90;99.90;;;;;;5120791;28;20419;-72
2022/10/19 08:06:02;;;;;;;22.00;17.80;;;20.70;99.90;;;;;;5108381;28;20452;-74
2022/10/19 08:08:27;;;;;;;24.43;17.10;;;21.20;99.90;;;;;;5130278;27;20236;-75
2022/10/19 08:10:53;;;;;;;25.90;17.50;;;21.70;99.90;;;;;;5131897;27;20978;-75
2022/10/19 08:13:19;;;;;;;22.03;17.90;;;21.90;99.90;;;;;;5133330;27;20195;-74
2022/10/19 08:15:45;;;;;;;22.23;16.97;;;21.90;99.90;;;;;;5116352;27;20451;-73
2022/10/19 08:18:10;;;;;;;23.73;16.57;;;22.00;99.90;;;;;;5134415;27;20561;-73
2022/10/19 08:20:39;;;;;;;20.20;15.60;;;22.40;99.90;;;;;;5123623;27;20186;-72
2022/10/19 08:23:04;;;;;;;22.37;17.80;;;22.90;99.90;;;;;;5133907;27;20632;-76
2022/10/19 08:25:30;;;;;;;23.17;17.00;;;23.40;99.90;;;;;;5130372;27;20542;-73
2022/10/19 08:27:56;;;;;;;19.40;16.10;;;23.90;99.90;;;;;;5134688;27;20179;-72
2022/10/19 08:30:21;;;;;;;21.63;15.70;;;24.10;99.90;;;;;;5133710;27;20234;-74
2022/10/19 08:32:47;;;;;;;19.27;17.17;;;24.10;99.90;;;;;;5113449;27;20214;-75
2022/10/19 08:35:13;;;;;;;18.40;15.50;;;24.20;99.90;;;;;;5132094;27;20203;-76
2022/10/19 08:37:39;;;;;;;18.23;15.53;;;24.00;99.90;;;;;;5108688;27;20277;-72
2022/10/19 08:40:05;;;;;;;18.83;14.07;;;23.70;99.90;;;;;;5127150;27;20722;-75
2022/10/19 08:42:46;;;;;;;16.67;14.27;;;23.30;99.90;;;;;;5131146;27;20194;-75
2022/10/19 08:45:27;;;;;;;16.40;13.70;;;22.80;99.90;;;;;;5131801;27;20442;-75
2022/10/19 08:48:12;;;;;;;20.13;15.07;;;22.20;99.90;;;;;;5112289;27;20430;-74
2022/10/19 08:50:41;;;;;;;46.83;33.80;;;21.70;99.90;;;;;;5134615;27;20469;-75
2022/10/19 08:53:15;;;;;;;21.07;16.70;;;21.30;99.90;;;;;;5134159;27;20411;-75
2022/10/19 08:56:02;;;;;;;18.40;16.40;;;21.00;99.90;;;;;;5134985;27;20452;-75
2022/10/19 08:58:40;;;;;;;17.60;15.70;;;20.70;99.90;;;;;;5132638;27;20430;-74
2022/10/19 09:01:33;;;;;;;23.37;16.50;;;20.40;99.90;;;;;;5130667;27;20442;-75
2022/10/19 09:04:14;;;;;;;23.90;17.00;;;20.20;99.90;;;;;;5123975;27;20415;-71
2022/10/19 09:07:11;;;;;;;23.20;18.70;;;20.00;99.90;;;;;;5107684;27;20425;-73
2022/10/19 09:10:07;;;;;;;20.53;14.87;;;19.90;99.90;;;;;;5103369;27;21057;-73
2022/10/19 09:12:59;;;;;;;17.47;14.73;;;19.80;99.90;;;;;;5120471;27;20415;-73
2022/10/19 09:15:44;;;;;;;18.87;14.90;;;19.80;99.90;;;;;;5108629;27;21060;-73
2022/10/19 09:18:29;;;;;;;16.13;14.30;;;19.70;99.90;;;;;;5108907;27;20536;-73
2022/10/19 09:21:06;;;;;;;14.50;12.80;;;19.70;99.90;;;;;;5111198;27;20460;-73
2022/10/19 09:23:46;;;;;;;16.37;14.07;;;19.60;99.90;;;;;;5133019;27;20443;-72
2022/10/19 09:26:17;;;;;;;16.63;14.30;;;19.60;99.90;;;;;;5120731;27;20469;-72
2022/10/19 09:28:54;;;;;;;20.30;14.80;;;19.60;99.90;;;;;;5114030;27;20437;-72
2022/10/19 09:31:35;;;;;;;18.10;13.87;;;19.60;99.90;;;;;;5103746;27;20450;-72
2022/10/19 09:34:09;;;;;;;17.13;14.37;;;19.70;99.90;;;;;;5109842;27;20425;-74
2022/10/19 09:36:39;;;;;;;17.03;13.73;;;19.80;99.90;;;;;;5112922;27;20467;-77
2022/10/19 09:39:05;;;;;;;19.20;14.73;;;20.00;99.90;;;;;;5130916;27;20436;-73
2022/10/19 09:41:32;;;;;;;16.30;13.43;;;20.20;99.90;;;;;;5130672;27;20423;-72
2022/10/19 09:43:58;;;;;;;19.60;15.20;;;20.40;99.90;;;;;;5112311;27;20238;-72
2022/10/19 09:46:44;;;;;;;17.57;12.90;;;20.40;99.90;;;;;;5130134;27;20442;-70
2022/10/19 09:49:09;;;;;;;17.13;14.30;;;20.30;99.90;;;;;;5115500;27;20434;-71
2022/10/19 09:51:50;;;;;;;17.30;14.07;;;20.20;99.90;;;;;;5132645;27;20402;-74
2022/10/19 09:54:32;;;;;;;24.10;17.87;;;20.10;99.90;;;;;;5130259;27;20266;-76
2022/10/19 09:56:57;;;;;;;20.30;16.00;;;20.10;99.90;;;;;;5109773;28;21165;-72
2022/10/19 09:59:29;;;;;;;18.60;14.13;;;20.00;99.90;;;;;;5130130;27;20444;-71
2022/10/19 10:02:17;;;;;;;17.57;14.00;;;19.90;99.90;;;;;;5120860;27;20633;-74
2022/10/19 10:05:09;;;;;;;17.50;13.97;;;19.90;99.90;;;;;;5126401;27;20459;-73
2022/10/19 10:07:37;;;;;;;16.77;12.63;;;19.80;99.90;;;;;;5115959;27;20493;-74
2022/10/19 10:10:19;;;;;;;19.20;13.90;;;19.80;99.90;;;;;;5114968;27;20478;-73
2022/10/19 10:12:46;;;;;;;20.17;14.30;;;19.80;99.90;;;;;;5112422;27;20416;-73
2022/10/19 10:15:20;;;;;;;21.43;16.00;;;19.80;99.90;;;;;;5131971;27;20799;-73
2022/10/19 10:17:47;;;;;;;16.00;12.60;;;19.80;99.90;;;;;;5131984;27;20474;-73
2022/10/19 10:20:22;;;;;;;17.50;13.50;;;19.90;99.90;;;;;;5133168;27;20458;-73
2022/10/19 10:23:22;;;;;;;16.90;14.97;;;19.90;99.90;;;;;;5113968;27;20422;-74
2022/10/19 10:25:48;;;;;;;16.77;13.20;;;19.90;99.90;;;;;;5081316;28;20508;-73
2022/10/19 10:28:19;;;;;;;15.90;13.40;;;19.90;99.90;;;;;;5083870;28;20539;-73
2022/10/19 10:30:47;;;;;;;18.60;14.60;;;20.00;99.90;;;;;;5083323;28;20455;-73
2022/10/19 10:33:24;;;;;;;16.93;14.23;;;19.90;99.90;;;;;;5079370;28;20759;-73
2022/10/19 10:35:52;;;;;;;14.67;12.63;;;19.90;99.90;;;;;;5090633;28;20451;-73
2022/10/19 10:38:24;;;;;;;14.70;12.90;;;19.90;99.90;;;;;;5089674;28;20441;-73
2022/10/19 10:41:01;;;;;;;16.60;13.07;;;20.00;99.90;;;;;;5089897;28;20457;-73
2022/10/19 10:43:31;;;;;;;16.13;12.60;;;20.00;99.90;;;;;;5084471;28;20442;-73
2022/10/19 10:46:07;;;;;;;16.20;13.33;;;20.00;99.90;;;;;;5086747;28;20465;-74
2022/10/19 10:48:44;;;;;;;16.40;12.70;;;20.00;99.90;;;;;;5084817;28;20422;-73
2022/10/19 10:51:48;;;;;;;16.37;11.77;;;20.00;99.90;;;;;;5085575;28;20467;-73
2022/10/19 10:54:18;;;;;;;15.13;11.40;;;20.00;99.90;;;;;;5072342;28;20453;-73
2022/10/19 10:57:00;;;;;;;14.33;11.67;;;20.00;99.90;;;;;;5084551;28;20666;-74
2022/10/19 10:59:30;;;;;;;13.20;10.77;;;20.10;99.90;;;;;;5092753;27;20658;-73
2022/10/19 11:02:25;;;;;;;12.40;10.90;;;20.10;99.90;;;;;;5069793;28;20520;-73
2022/10/19 11:04:56;;;;;;;15.30;10.43;;;20.10;99.90;;;;;;5070093;28;20461;-73
2022/10/19 11:07:27;;;;;;;14.53;8.90;;;20.10;99.90;;;;;;5077103;28;20401;-73
2022/10/19 11:10:10;;;;;;;9.97;8.97;;;20.10;99.90;;;;;;5080393;28;20548;-73
2022/10/19 11:12:42;;;;;;;9.50;8.50;;;20.10;99.90;;;;;;5079450;28;20891;-73
2022/10/19 11:15:22;;;;;;;11.67;9.20;;;20.10;99.90;;;;;;5109491;27;20688;-74
2022/10/19 11:17:56;;;;;;;13.57;9.80;;;20.10;99.90;;;;;;5082235;28;20452;-74
2022/10/19 11:20:24;;;;;;;10.73;9.60;;;20.20;99.90;;;;;;5080213;28;20480;-74
2022/10/19 11:23:05;;;;;;;9.70;8.40;;;20.20;99.90;;;;;;5076891;28;20413;-74
2022/10/19 11:26:02;;;;;;;12.70;8.90;;;20.20;99.90;;;;;;5119433;27;20514;-75
2022/10/19 11:28:53;;;;;;;11.37;8.13;;;20.20;99.90;;;;;;5129868;27;20595;-74
2022/10/19 11:31:27;;;;;;;11.70;9.27;;;20.20;99.90;;;;;;5106595;27;21026;-75
2022/10/19 11:34:09;;;;;;;14.77;8.87;;;20.20;99.90;;;;;;5102850;27;20661;-74
2022/10/19 11:37:14;;;;;;;10.97;8.60;;;20.20;99.90;;;;;;5107503;27;20494;-74
2022/10/19 11:39:59;;;;;;;11.60;8.63;;;20.30;99.90;;;;;;5103068;27;20511;-74
2022/10/19 11:42:45;;;;;;;9.30;8.40;;;20.30;99.90;;;;;;5121379;27;20512;-74
2022/10/19 11:45:10;;;;;;;10.00;8.80;;;20.30;99.90;;;;;;5109468;27;20553;-74
2022/10/19 11:47:58;;;;;;;11.40;9.63;;;20.30;99.90;;;;;;5126527;27;20568;-75
2022/10/19 11:50:40;;;;;;;13.70;10.00;;;20.30;99.90;;;;;;5128349;27;20248;-74
2022/10/19 11:53:06;;;;;;;13.70;10.07;;;20.30;99.90;;;;;;5103848;28;20431;-74
2022/10/19 11:55:55;;;;;;;11.97;10.07;;;20.30;99.90;;;;;;5131455;27;20971;-74
2022/10/19 11:58:53;;;;;;;11.70;9.37;;;20.30;99.90;;;;;;5132737;28;20615;-74
2022/10/19 12:01:32;;;;;;;15.10;9.60;;;20.30;99.90;;;;;;5109017;28;20454;-74
2022/10/19 12:04:21;;;;;;;10.83;9.67;;;20.30;99.90;;;;;;5106648;28;20439;-75
2022/10/19 12:07:08;;;;;;;11.63;8.77;;;20.30;99.90;;;;;;5126345;28;20475;-74
2022/10/19 12:09:43;;;;;;;12.43;9.40;;;20.30;99.90;;;;;;5092777;28;20464;-75
2022/10/19 12:12:24;;;;;;;13.03;9.00;;;20.30;99.90;;;;;;5129257;28;20492;-74
2022/10/19 12:15:09;;;;;;;10.80;7.80;;;20.30;99.90;;;;;;5132068;27;20600;-74
2022/10/19 12:17:38;;;;;;;11.17;8.10;;;20.30;99.90;;;;;;5111847;28;20994;-74
2022/10/19 12:20:20;;;;;;;9.50;7.23;;;20.30;99.90;;;;;;5131964;28;20450;-74
2022/10/19 12:22:47;;;;;;;12.33;8.00;;;20.30;99.90;;;;;;5132777;28;20494;-74
2022/10/19 12:25:14;;;;;;;7.90;6.80;;;20.30;99.90;;;;;;5127388;28;20486;-74
2022/10/19 12:27:40;;;;;;;7.27;6.57;;;20.30;99.90;;;;;;5124073;28;20443;-74
2022/10/19 12:30:18;;;;;;;7.30;6.13;;;20.30;99.90;;;;;;5115464;28;20906;-74
2022/10/19 12:32:54;;;;;;;9.23;6.70;;;20.30;99.90;;;;;;5133376;28;20588;-74
2022/10/19 12:35:27;;;;;;;8.83;7.50;;;20.30;99.90;;;;;;5133397;27;20488;-75
2022/10/19 12:38:04;;;;;;;8.27;7.47;;;20.40;99.90;;;;;;5130631;27;21001;-74
2022/10/19 12:40:37;;;;;;;6.93;5.80;;;20.40;99.90;;;;;;5125236;28;20447;-74
2022/10/19 12:43:27;;;;;;;7.50;6.70;;;20.30;99.90;;;;;;5109573;27;20438;-74
2022/10/19 12:46:08;;;;;;;7.40;6.70;;;20.30;99.90;;;;;;5125510;27;20447;-74
2022/10/19 12:48:36;;;;;;;7.87;6.70;;;20.30;99.90;;;;;;5124352;28;20431;-74
2022/10/19 12:51:05;;;;;;;9.60;6.13;;;20.30;99.90;;;;;;5108559;28;20467;-74
2022/10/19 12:53:37;;;;;;;8.03;6.10;;;20.30;99.90;;;;;;5131346;28;20983;-73
2022/10/19 12:56:06;;;;;;;7.43;6.63;;;20.30;99.90;;;;;;5135141;27;20977;-73